createdAt,value
2019-01-21T00:00:35.654Z,29.30
2019-01-21T00:03:04.978Z,30.37
2019-01-21T00:05:35.203Z,30.57
2019-01-21T00:08:04.198Z,31.13
2019-01-21T00:10:33.175Z,36.23
2019-01-21T00:13:01.641Z,27.70
2019-01-21T00:15:30.464Z,33.17
2019-01-21T00:17:59.239Z,34.40
2019-01-21T00:20:27.770Z,26.37
2019-01-21T00:22:56.218Z,32.90
2019-01-21T00:25:25.086Z,32.43
2019-01-21T00:27:54.461Z,32.03
2019-01-21T00:30:23.283Z,28.67
2019-01-21T00:32:52.034Z,32.57
2019-01-21T00:35:20.483Z,32.57
2019-01-21T00:37:49.256Z,30.63
2019-01-21T00:40:18.735Z,34.00
2019-01-21T00:42:47.520Z,28.57
2019-01-21T00:45:15.994Z,33.63
2019-01-21T00:47:44.787Z,30.33
2019-01-21T00:50:16.756Z,25.27
2019-01-21T00:52:45.769Z,29.50
2019-01-21T00:55:14.769Z,29.43
2019-01-21T00:57:43.522Z,29.27
2019-01-21T01:00:18.741Z,25.70
2019-01-21T01:02:47.462Z,28.47
2019-01-21T01:05:16.924Z,34.20
2019-01-21T01:07:45.899Z,31.30
2019-01-21T01:10:14.696Z,27.73
2019-01-21T01:12:43.404Z,32.93
2019-01-21T01:15:14.464Z,37.20
2019-01-21T01:17:43.422Z,30.90
2019-01-21T01:20:14.628Z,37.07
2019-01-21T01:22:43.558Z,31.47
2019-01-21T01:25:12.532Z,30.27
2019-01-21T01:27:41.252Z,28.57
2019-01-21T01:30:12.630Z,32.47
2019-01-21T01:32:41.455Z,30.00
2019-01-21T01:35:11.860Z,36.17
2019-01-21T01:37:41.076Z,31.90
2019-01-21T01:40:13.074Z,28.83
2019-01-21T01:42:41.861Z,29.80
2019-01-21T01:45:16.655Z,31.10
2019-01-21T01:47:45.185Z,33.03
2019-01-21T01:50:13.808Z,34.37
2019-01-21T01:52:42.773Z,30.20
2019-01-21T01:55:11.834Z,32.60
2019-01-21T01:57:40.692Z,29.93
2019-01-21T02:00:12.786Z,32.17
2019-01-21T02:02:41.306Z,27.67
2019-01-21T02:05:10.436Z,26.60
2019-01-21T02:07:38.978Z,30.90
2019-01-21T02:10:10.692Z,34.13
2019-01-21T02:12:39.476Z,31.30
2019-01-21T02:15:14.209Z,30.57
2019-01-21T02:17:43.024Z,28.00
2019-01-21T02:20:14.204Z,29.30
2019-01-21T02:22:45.175Z,34.90
2019-01-21T02:25:14.104Z,32.07
2019-01-21T02:28:02.501Z,35.90
2019-01-21T02:30:50.592Z,30.73
2019-01-21T02:33:56.301Z,35.43
2019-01-21T02:36:47.512Z,30.60
2019-01-21T02:39:25.718Z,30.60
2019-01-21T02:41:57.721Z,24.93
2019-01-21T02:44:48.716Z,28.70
2019-01-21T02:47:23.223Z,26.63
2019-01-21T02:50:04.069Z,30.73
2019-01-21T02:52:35.867Z,26.63
2019-01-21T02:55:10.288Z,33.07
2019-01-21T02:58:15.355Z,32.70
2019-01-21T03:00:55.553Z,31.97
2019-01-21T03:03:43.495Z,32.43
2019-01-21T03:06:29.785Z,33.23
2019-01-21T03:09:07.385Z,28.43
2019-01-21T03:11:55.193Z,31.60
2019-01-21T03:14:29.617Z,27.63
2019-01-21T03:17:22.202Z,24.70
2019-01-21T03:20:14.505Z,31.40
2019-01-21T03:23:03.197Z,27.23
2019-01-21T03:25:40.589Z,33.47
2019-01-21T03:28:12.645Z,28.40
2019-01-21T03:30:52.904Z,33.17
2019-01-21T03:33:26.746Z,26.37
2019-01-21T03:36:01.302Z,25.73
2019-01-21T03:38:45.065Z,29.07
2019-01-21T03:41:17.111Z,30.30
2019-01-21T03:44:00.474Z,28.20
2019-01-21T03:46:52.143Z,27.87
2019-01-21T03:49:32.497Z,23.87
2019-01-21T03:52:23.707Z,33.27
2019-01-21T03:54:52.702Z,23.70
2019-01-21T03:57:27.510Z,27.40
2019-01-21T04:00:02.054Z,26.67
2019-01-21T04:03:07.423Z,37.13
2019-01-21T04:06:00.479Z,27.83
2019-01-21T04:08:48.898Z,27.37
2019-01-21T04:11:35.737Z,27.97
2019-01-21T04:14:40.947Z,28.50
2019-01-21T04:17:27.623Z,36.47
2019-01-21T04:19:59.521Z,30.03
2019-01-21T04:22:50.737Z,27.87
2019-01-21T04:25:28.953Z,33.00
2019-01-21T04:28:09.627Z,27.40
2019-01-21T04:30:47.543Z,27.63
2019-01-21T04:33:28.593Z,33.63
2019-01-21T04:36:12.433Z,27.90
2019-01-21T04:39:06.973Z,30.30
2019-01-21T04:41:47.208Z,35.40
2019-01-21T04:44:21.851Z,23.97
2019-01-21T04:47:13.920Z,27.93
2019-01-21T04:49:52.129Z,28.00
2019-01-21T04:52:35.700Z,31.63
2019-01-21T04:55:10.524Z,25.90
2019-01-21T04:57:59.041Z,25.47
2019-01-21T05:00:54.901Z,24.53
2019-01-21T05:03:52.174Z,25.83
2019-01-21T05:06:57.551Z,30.83
2019-01-21T05:09:47.717Z,27.97
2019-01-21T05:12:28.492Z,31.53
2019-01-21T05:15:17.576Z,28.00
2019-01-21T05:17:51.914Z,31.43
2019-01-21T05:20:32.584Z,35.63
2019-01-21T05:23:13.384Z,27.10
2019-01-21T05:25:45.382Z,36.83
2019-01-21T05:28:23.112Z,36.97
2019-01-21T05:31:16.182Z,29.23
2019-01-21T05:33:47.842Z,29.37
2019-01-21T05:36:43.320Z,33.77
2019-01-21T05:39:17.738Z,35.20
2019-01-21T05:41:49.686Z,31.60
2019-01-21T05:44:27.484Z,27.17
2019-01-21T05:47:08.062Z,38.07
2019-01-21T05:49:39.896Z,33.33
2019-01-21T05:52:17.545Z,40.17
2019-01-21T05:55:01.575Z,39.80
2019-01-21T05:57:56.234Z,41.67
2019-01-21T06:00:53.023Z,37.90
2019-01-21T06:03:34.346Z,39.73
2019-01-21T06:06:08.701Z,36.43
2019-01-21T06:08:57.240Z,48.03
2019-01-21T06:11:32.000Z,47.10
2019-01-21T06:14:18.793Z,39.70
2019-01-21T06:17:02.504Z,35.17
2019-01-21T06:19:49.303Z,28.43
2019-01-21T06:22:26.934Z,40.70
2019-01-21T06:24:58.469Z,36.00
2019-01-21T06:27:41.977Z,40.33
2019-01-21T06:30:16.480Z,26.17
2019-01-21T06:33:04.399Z,32.20
2019-01-21T06:35:51.554Z,35.87
2019-01-21T06:38:32.450Z,29.93
2019-01-21T06:41:20.530Z,33.70
2019-01-21T06:44:14.959Z,33.00
2019-01-21T06:46:46.752Z,34.70
2019-01-21T06:49:36.818Z,31.53
2019-01-21T06:52:26.774Z,35.17
2019-01-21T06:55:04.811Z,30.33
2019-01-21T06:57:45.340Z,27.13
2019-01-21T07:00:23.160Z,31.57
2019-01-21T07:03:06.724Z,30.57
2019-01-21T07:05:58.025Z,36.07
2019-01-21T07:08:44.824Z,32.83
2019-01-21T07:11:22.511Z,49.90
2019-01-21T07:14:05.968Z,41.87
2019-01-21T07:16:49.987Z,38.27
2019-01-21T07:19:36.584Z,39.10
2019-01-21T07:22:26.583Z,36.30
2019-01-21T07:25:16.344Z,34.23
2019-01-21T07:27:56.710Z,31.13
2019-01-21T07:30:43.720Z,38.73
2019-01-21T07:33:41.370Z,39.17
2019-01-21T07:36:24.833Z,32.50
2019-01-21T07:39:20.560Z,38.17
2019-01-21T07:42:04.197Z,42.53
2019-01-21T07:44:52.506Z,37.37
2019-01-21T07:47:42.508Z,35.87
2019-01-21T07:50:20.674Z,36.70
2019-01-21T07:53:04.344Z,38.07
2019-01-21T07:56:00.661Z,37.90
2019-01-21T07:58:58.453Z,36.07
2019-01-21T08:01:36.289Z,37.47
2019-01-21T08:04:16.690Z,52.30
2019-01-21T08:06:58.646Z,42.33
2019-01-21T08:09:31.326Z,44.97
2019-01-21T08:12:26.799Z,37.77
2019-01-21T08:14:58.672Z,43.97
2019-01-21T08:17:31.434Z,39.37
2019-01-21T08:20:18.328Z,37.83
2019-01-21T08:23:11.180Z,31.30
2019-01-21T08:25:43.035Z,35.27
2019-01-21T08:28:44.815Z,38.80
2019-01-21T08:31:25.412Z,39.60
2019-01-21T08:34:03.394Z,30.07
2019-01-21T08:36:38.097Z,31.17
2019-01-21T08:39:29.020Z,30.10
2019-01-21T08:42:13.891Z,35.57
2019-01-21T08:44:54.621Z,32.33
2019-01-21T08:47:39.080Z,38.03
2019-01-21T08:50:14.040Z,31.77
2019-01-21T08:52:52.061Z,38.10
2019-01-21T08:55:46.949Z,40.73
2019-01-21T08:58:39.241Z,43.93
2019-01-21T09:01:17.404Z,38.13
2019-01-21T09:04:04.345Z,37.07
2019-01-21T09:07:00.731Z,41.77
2019-01-21T09:09:49.202Z,52.17
2019-01-21T09:12:26.753Z,42.93
2019-01-21T09:15:04.660Z,38.93
2019-01-21T09:17:52.988Z,42.03
2019-01-21T09:20:28.871Z,46.63
2019-01-21T09:23:03.352Z,42.33
2019-01-21T09:25:35.201Z,40.33
2019-01-21T09:28:10.059Z,47.70
2019-01-21T09:30:53.893Z,40.17
2019-01-21T09:33:26.459Z,41.87
2019-01-21T09:36:14.669Z,46.53
2019-01-21T09:38:47.260Z,42.73
2019-01-21T09:41:46.658Z,34.73
2019-01-21T09:44:21.269Z,42.73
2019-01-21T09:46:48.988Z,41.70
2019-01-21T09:49:16.703Z,44.83
2019-01-21T09:51:48.385Z,51.10
2019-01-21T09:54:18.127Z,46.40
2019-01-21T09:56:49.274Z,56.37
2019-01-21T09:59:20.006Z,56.87
2019-01-21T10:01:50.508Z,62.07
2019-01-21T10:04:22.389Z,63.87
2019-01-21T10:06:54.304Z,56.10
2019-01-21T10:09:26.178Z,52.03
2019-01-21T10:11:57.815Z,46.27
2019-01-21T10:14:37.808Z,55.37
2019-01-21T10:17:21.093Z,52.67
2019-01-21T10:20:23.018Z,48.37
2019-01-21T10:22:54.673Z,46.17
2019-01-21T10:25:26.593Z,40.03
2019-01-21T10:28:06.836Z,41.47
2019-01-21T10:30:58.545Z,44.03
2019-01-21T10:34:07.957Z,46.10
2019-01-21T10:37:17.029Z,43.98
2019-01-21T10:40:07.966Z,45.38
2019-01-21T10:42:39.551Z,46.45
2019-01-21T10:45:33.551Z,42.65
2019-01-21T10:48:14.361Z,33.02
2019-01-21T10:50:55.483Z,28.40
2019-01-21T10:53:31.238Z,30.92
2019-01-21T10:56:08.739Z,27.62
2019-01-21T10:58:43.479Z,27.82
2019-01-21T11:01:18.121Z,26.23
2019-01-21T11:03:51.451Z,26.00
2019-01-21T11:06:43.361Z,31.17
2019-01-21T11:09:26.514Z,31.68
2019-01-21T11:12:01.059Z,33.15
2019-01-21T11:14:34.135Z,27.62
2019-01-21T11:17:16.349Z,25.23
2019-01-21T11:20:04.289Z,27.58
2019-01-21T11:22:34.470Z,29.92
2019-01-21T11:25:08.949Z,26.93
2019-01-21T11:27:43.859Z,25.08
2019-01-21T11:30:41.041Z,25.12
2019-01-21T11:33:28.106Z,27.73
2019-01-21T11:36:29.799Z,25.82
2019-01-21T11:39:13.821Z,23.20
2019-01-21T11:41:47.962Z,23.18
2019-01-21T11:44:22.400Z,31.40
2019-01-21T11:47:03.324Z,27.07
2019-01-21T11:49:41.469Z,28.35
2019-01-21T11:52:18.446Z,26.05
2019-01-21T11:55:05.018Z,27.62
2019-01-21T11:57:46.182Z,32.23
2019-01-21T12:00:29.918Z,36.75
2019-01-21T12:03:16.740Z,25.97
2019-01-21T12:05:48.688Z,27.37
2019-01-21T12:08:26.287Z,25.25
2019-01-21T12:11:04.502Z,30.45
2019-01-21T12:13:56.202Z,26.70
2019-01-21T12:16:40.816Z,19.57
2019-01-21T12:19:47.086Z,20.75
2019-01-21T12:22:33.754Z,19.43
2019-01-21T12:25:08.104Z,22.25
2019-01-21T12:28:11.778Z,20.32
2019-01-21T12:30:43.611Z,22.90
2019-01-21T12:33:30.242Z,25.75
2019-01-21T12:36:01.784Z,28.35
2019-01-21T12:38:57.116Z,46.50
2019-01-21T12:41:48.512Z,21.45
2019-01-21T12:44:28.989Z,23.25
2019-01-21T12:47:03.610Z,37.33
2019-01-21T12:49:44.097Z,23.22
2019-01-21T12:52:15.746Z,19.67
2019-01-21T12:54:47.574Z,20.65
2019-01-21T12:57:43.184Z,25.02
2019-01-21T13:00:32.276Z,22.22
2019-01-21T13:03:06.372Z,20.45
2019-01-21T13:05:38.194Z,22.10
2019-01-21T13:08:13.095Z,22.13
2019-01-21T13:10:47.534Z,19.07
2019-01-21T13:13:44.874Z,28.23
2019-01-21T13:16:34.476Z,24.92
2019-01-21T13:19:14.376Z,26.05
2019-01-21T13:22:00.876Z,31.73
2019-01-21T13:24:53.169Z,31.68
2019-01-21T13:27:51.986Z,28.12
2019-01-21T13:30:29.469Z,25.72
2019-01-21T13:33:15.946Z,29.75
2019-01-21T13:35:56.930Z,33.38
2019-01-21T13:38:37.328Z,33.42
2019-01-21T13:41:08.898Z,30.52
2019-01-21T13:43:43.811Z,32.27
2019-01-21T13:46:34.098Z,34.43
2019-01-21T13:49:14.433Z,31.33
2019-01-21T13:52:03.068Z,40.00
2019-01-21T13:54:47.178Z,41.57
2019-01-21T13:57:27.784Z,36.90
2019-01-21T14:00:20.762Z,27.27
2019-01-21T14:02:55.156Z,33.60
2019-01-21T14:05:45.792Z,30.50
2019-01-21T14:08:20.280Z,23.27
2019-01-21T14:10:57.804Z,31.77
2019-01-21T14:13:32.318Z,26.53
2019-01-21T14:16:18.803Z,30.60
2019-01-21T14:18:53.040Z,28.63
2019-01-21T14:21:41.796Z,27.50
2019-01-21T14:24:42.196Z,30.57
2019-01-21T14:27:34.914Z,28.98
2019-01-21T14:30:30.669Z,26.52
2019-01-21T14:33:14.264Z,27.27
2019-01-21T14:35:54.813Z,32.38
2019-01-21T14:38:38.244Z,36.33
2019-01-21T14:41:15.858Z,34.92
2019-01-21T14:43:59.394Z,30.72
2019-01-21T14:47:04.065Z,29.30
2019-01-21T14:49:44.600Z,30.90
2019-01-21T14:52:33.044Z,34.75
2019-01-21T14:55:16.592Z,36.42
2019-01-21T14:57:50.876Z,33.60
2019-01-21T15:00:43.825Z,34.53
2019-01-21T15:03:18.556Z,39.78
2019-01-21T15:05:58.874Z,33.18
2019-01-21T15:08:30.822Z,29.48
2019-01-21T15:11:02.428Z,34.20
2019-01-21T15:13:34.318Z,31.93
2019-01-21T15:16:15.545Z,37.00
2019-01-21T15:18:56.558Z,33.83
2019-01-21T15:21:35.435Z,38.07
2019-01-21T15:24:22.046Z,48.37
2019-01-21T15:27:10.827Z,36.70
2019-01-21T15:30:04.185Z,36.30
2019-01-21T15:32:36.107Z,34.23
2019-01-21T15:35:20.584Z,43.97
2019-01-21T15:37:50.065Z,33.77
2019-01-21T15:40:50.674Z,32.83
2019-01-21T15:43:32.796Z,33.37
2019-01-21T15:46:22.738Z,37.60
2019-01-21T15:49:12.308Z,36.57
2019-01-21T15:51:58.435Z,35.00
2019-01-21T15:54:38.905Z,46.13
2019-01-21T15:57:13.181Z,46.13
2019-01-21T16:00:18.760Z,73.47
2019-01-21T16:03:20.630Z,42.53
2019-01-21T16:05:55.029Z,38.00
2019-01-21T16:08:27.274Z,44.57
2019-01-21T16:11:07.760Z,45.77
2019-01-21T16:13:42.625Z,49.27
2019-01-21T16:16:14.159Z,38.53
2019-01-21T16:18:48.472Z,43.77
2019-01-21T16:21:42.981Z,40.50
2019-01-21T16:24:20.633Z,48.00
2019-01-21T16:27:00.691Z,61.73
2019-01-21T16:29:41.641Z,54.10
2019-01-21T16:32:10.517Z,60.93
2019-01-21T16:34:44.657Z,46.70
2019-01-21T16:37:22.533Z,47.50
2019-01-21T16:40:06.528Z,52.83
2019-01-21T16:42:34.236Z,48.43
2019-01-21T16:45:02.713Z,63.20
2019-01-21T16:47:32.548Z,57.23
2019-01-21T16:50:01.360Z,53.80
2019-01-21T16:52:29.891Z,51.73
2019-01-21T16:54:59.879Z,56.23
2019-01-21T16:57:30.134Z,46.27
2019-01-21T16:59:58.660Z,48.23
2019-01-21T17:02:27.451Z,40.23
2019-01-21T17:04:56.006Z,55.23
2019-01-21T17:07:24.532Z,42.97
2019-01-21T17:09:53.804Z,54.30
2019-01-21T17:12:22.532Z,51.53
2019-01-21T17:14:57.380Z,47.13
2019-01-21T17:17:21.406Z,47.70
2019-01-21T17:19:50.241Z,44.37
2019-01-21T17:22:19.156Z,42.20
2019-01-21T17:24:49.086Z,39.33
2019-01-21T17:27:17.909Z,46.97
2019-01-21T17:29:46.453Z,43.10
2019-01-21T17:32:15.336Z,44.77
2019-01-21T17:34:44.087Z,47.03
2019-01-21T17:37:12.790Z,50.97
2019-01-21T17:39:41.241Z,51.23
2019-01-21T17:42:10.344Z,48.60
2019-01-21T17:44:39.756Z,50.10
2019-01-21T17:47:08.956Z,40.90
2019-01-21T17:49:37.758Z,58.17
2019-01-21T17:52:06.384Z,51.03
2019-01-21T17:54:36.588Z,56.50
2019-01-21T17:57:05.287Z,53.40
2019-01-21T17:59:33.756Z,62.00
2019-01-21T18:02:02.872Z,60.60
2019-01-21T18:04:31.698Z,63.87
2019-01-21T18:07:00.467Z,41.87
2019-01-21T18:09:29.002Z,50.70
2019-01-21T18:11:57.495Z,60.13
2019-01-21T18:14:25.944Z,54.70
2019-01-21T18:16:54.714Z,43.27
2019-01-21T18:19:23.578Z,52.13
2019-01-21T18:21:52.367Z,58.80
2019-01-21T18:24:20.893Z,58.97
2019-01-21T18:26:49.428Z,66.43
2019-01-21T18:29:18.201Z,84.47
2019-01-21T18:31:46.740Z,95.40
2019-01-21T18:34:15.272Z,87.33
2019-01-21T18:36:44.100Z,125.13
2019-01-21T18:39:12.753Z,67.30
2019-01-21T18:41:41.388Z,67.10
2019-01-21T18:44:10.324Z,75.47
2019-01-21T18:46:38.776Z,64.33
2019-01-21T18:49:07.677Z,57.00
2019-01-21T18:51:36.501Z,58.90
2019-01-21T18:54:05.125Z,53.70
2019-01-21T18:56:33.644Z,51.50
2019-01-21T18:59:02.400Z,45.57
2019-01-21T19:01:31.274Z,53.27
2019-01-21T19:03:59.812Z,49.83
2019-01-21T19:06:28.682Z,47.00
2019-01-21T19:08:57.206Z,46.17
2019-01-21T19:11:25.781Z,42.60
2019-01-21T19:13:54.713Z,46.23
2019-01-21T19:16:23.288Z,48.63
2019-01-21T19:18:52.110Z,48.63
2019-01-21T19:21:20.664Z,43.60
2019-01-21T19:23:49.188Z,46.70
2019-01-21T19:26:17.981Z,51.87
2019-01-21T19:28:46.893Z,55.53
2019-01-21T19:31:15.505Z,57.47
2019-01-21T19:33:44.132Z,49.20
2019-01-21T19:36:12.644Z,53.70
2019-01-21T19:38:41.374Z,54.40
2019-01-21T19:41:09.873Z,47.47
2019-01-21T19:43:38.678Z,54.07
2019-01-21T19:46:07.465Z,53.10
2019-01-21T19:48:35.995Z,60.57
2019-01-21T19:51:04.589Z,50.93
2019-01-21T19:53:33.325Z,55.03
2019-01-21T19:56:01.857Z,48.00
2019-01-21T19:58:30.679Z,51.00
2019-01-21T20:00:59.128Z,60.57
2019-01-21T20:03:28.059Z,52.83
2019-01-21T20:05:56.624Z,58.77
2019-01-21T20:08:26.384Z,51.90
2019-01-21T20:10:55.502Z,50.87
2019-01-21T20:13:23.989Z,54.10
2019-01-21T20:15:52.451Z,53.63
2019-01-21T20:18:21.043Z,57.77
2019-01-21T20:20:49.874Z,61.00
2019-01-21T20:23:18.349Z,46.17
2019-01-21T20:25:46.920Z,58.97
2019-01-21T20:28:15.603Z,54.60
2019-01-21T20:30:44.404Z,62.90
2019-01-21T20:33:12.913Z,56.83
2019-01-21T20:35:41.368Z,52.83
2019-01-21T20:38:10.126Z,52.97
2019-01-21T20:40:39.669Z,57.37
2019-01-21T20:43:08.552Z,57.93
2019-01-21T20:45:37.076Z,55.73
2019-01-21T20:48:05.668Z,59.73
2019-01-21T20:50:35.187Z,56.60
2019-01-21T20:53:04.562Z,54.77
2019-01-21T20:55:33.218Z,56.23
2019-01-21T20:58:02.009Z,51.40
2019-01-21T21:00:31.103Z,58.07
2019-01-21T21:03:02.718Z,62.60
2019-01-21T21:05:31.417Z,54.43
2019-01-21T21:08:00.029Z,52.70
2019-01-21T21:10:28.837Z,60.20
2019-01-21T21:12:59.219Z,54.23
2019-01-21T21:15:30.568Z,57.20
2019-01-21T21:17:59.052Z,65.73
2019-01-21T21:20:28.021Z,54.93
2019-01-21T21:22:56.646Z,58.57
2019-01-21T21:25:26.552Z,60.80
2019-01-21T21:27:56.157Z,64.87
2019-01-21T21:30:30.079Z,63.23
2019-01-21T21:32:58.647Z,59.50
2019-01-21T21:35:27.349Z,67.47
2019-01-21T21:37:55.955Z,74.47
2019-01-21T21:40:26.987Z,78.63
2019-01-21T21:42:56.830Z,72.63
2019-01-21T21:45:26.118Z,67.10
2019-01-21T21:48:00.808Z,58.27
2019-01-21T21:50:29.812Z,70.93
2019-01-21T21:52:59.134Z,89.33
2019-01-21T21:55:29.663Z,76.33
2019-01-21T21:57:59.835Z,72.37
2019-01-21T22:00:29.093Z,72.53
2019-01-21T22:02:58.656Z,63.17
2019-01-21T22:05:27.578Z,73.77
2019-01-21T22:07:56.058Z,79.93
2019-01-21T22:10:26.920Z,68.50
2019-01-21T22:12:57.627Z,74.47
2019-01-21T22:15:26.802Z,62.57
2019-01-21T22:17:55.426Z,63.47
2019-01-21T22:20:26.107Z,73.27
2019-01-21T22:22:54.728Z,70.93
2019-01-21T22:25:23.444Z,61.03
2019-01-21T22:27:52.055Z,67.17
2019-01-21T22:30:26.026Z,63.63
2019-01-21T22:32:54.983Z,68.27
2019-01-21T22:35:24.430Z,107.20
2019-01-21T22:37:53.041Z,75.93
2019-01-21T22:40:22.363Z,98.23
2019-01-21T22:42:51.237Z,82.97
2019-01-21T22:45:21.071Z,85.93
2019-01-21T22:47:50.690Z,84.27
2019-01-21T22:50:22.435Z,82.47
2019-01-21T22:52:51.034Z,77.00
2019-01-21T22:55:20.032Z,84.47
2019-01-21T22:57:49.109Z,68.70
2019-01-21T23:00:31.125Z,79.50
2019-01-21T23:02:59.971Z,64.93
2019-01-21T23:05:28.561Z,73.40
2019-01-21T23:07:57.249Z,66.00
2019-01-21T23:10:26.293Z,63.57
2019-01-21T23:12:55.208Z,69.00
2019-01-21T23:15:23.873Z,75.73
2019-01-21T23:17:53.109Z,67.43
2019-01-21T23:20:21.689Z,73.77
2019-01-21T23:22:50.318Z,71.10
2019-01-21T23:25:18.848Z,72.23
2019-01-21T23:27:47.726Z,74.53
2019-01-21T23:30:23.604Z,75.37
2019-01-21T23:32:52.206Z,75.70
2019-01-21T23:35:20.989Z,68.83
2019-01-21T23:37:49.531Z,73.07
2019-01-21T23:40:18.066Z,79.20
2019-01-21T23:42:47.420Z,76.93
2019-01-21T23:45:16.152Z,76.20
2019-01-21T23:47:45.112Z,69.23
2019-01-21T23:50:17.077Z,69.77
2019-01-21T23:52:48.175Z,71.40
2019-01-21T23:55:16.840Z,66.30
2019-01-21T23:57:45.696Z,83.07
